Etusivu
METAR-TAF:

METAR-TAF

Lentoasemat :

Clayton, New Mexico, Yhdysvallat

Leveyspiiri: 36-26-54N, Pituuspiiri: 103-09-11W, korkeus merenpinnasta: 1513 m

Tämänhetkinen sää

Tämä raportti tehtiin 38 minuuttia sitten, kello 10.55 UTC
Tuuli 4 kn lännestä/lounaasta
Lämpötila 17°C
Kosteus 52%
Ilmanpaine 1022 hPa
Näkyvyys: 16.1 km
Hajonneita pilviä 1700 ft:n korkeudessa

METAR: KCAO 281055Z AUTO 24004KT 10SM BKN017 17/07 A3018 RMK AO2 SLP151 T01670072 $

Aika: 05:33 (11:33 UTC)


TAF: puuttuu

Säähavainnot ja -ennusteet yli 4000 lentoasemalta (METAR- ja TAF-raportit).

Käytössä olevat sääasemat on merkitty karttaan keltaisilla ja punaisilla pisteillä.

Aseta hiiri pisteen päälle nähdäksesi sääaseman nimen.

Klikkaa sitten nähdäksesi säähavainnot ja -ennusteet.

Kartan vaihtaminen: klikkaa mustalla rastilla varustettuja vihreitä pisteitä, niin voit zoomata sisään; viivalla varustettua vihreää pistettä, niin voit zoomata ulos tai vihreitä nuolia, niin pääset viereisille kartoille.


METAR-TAF: